Time;durP1;ratioP1;P1;durP2;ratioP2;P2;SDS_P1;SDS_P2;PMS_P1;PMS_P2;Temp;Humidity;BMP_temperature;BMP_pressure;BME280_temperature;BME280_humidity;BME280_pressure;Samples;Min_cycle;Max_cycle;Signal;HPM_P1;HPM_P2
2021/09/14 00:01:55;;;;;;;;;5.75;5.75;;;;;23.69;52.03;100726.53;4867446;29;45356;-72
2021/09/14 00:04:20;;;;;;;;;5.25;5.25;;;;;23.68;51.71;100717.47;4883235;29;45439;-72
2021/09/14 00:06:45;;;;;;;;;6.50;6.50;;;;;23.60;51.56;100716.41;4883521;29;45306;-72
2021/09/14 00:09:11;;;;;;;;;6.00;5.75;;;;;23.57;52.12;100713.97;4884062;29;45334;-72
2021/09/14 00:11:39;;;;;;;;;6.75;6.75;;;;;23.52;52.23;100719.81;4866997;29;45338;-72
2021/09/14 00:14:04;;;;;;;;;5.00;5.00;;;;;23.57;52.05;100728.47;4856494;29;45431;-72
2021/09/14 00:16:30;;;;;;;;;8.75;6.25;;;;;23.57;52.13;100723.03;4883755;29;45295;-72
2021/09/14 00:18:55;;;;;;;;;6.50;5.50;;;;;23.55;52.08;100735.88;4884024;29;46004;-72
2021/09/14 00:21:21;;;;;;;;;5.25;5.25;;;;;23.51;51.86;100722.69;4878700;29;45373;-72
2021/09/14 00:23:46;;;;;;;;;8.75;6.75;;;;;23.61;52.14;100732.63;4884370;29;45310;-72
2021/09/14 00:26:12;;;;;;;;;6.25;5.00;;;;;23.56;52.14;100721.28;4883729;29;45449;-72
2021/09/14 00:28:37;;;;;;;;;7.25;6.25;;;;;23.49;52.57;100706.47;4883978;29;46201;-72
2021/09/14 00:31:02;;;;;;;;;6.50;6.50;;;;;23.49;51.98;100707.34;4883975;29;45398;-72
2021/09/14 00:33:28;;;;;;;;;6.00;6.00;;;;;23.54;52.29;100711.50;4883827;29;45341;-72
2021/09/14 00:35:53;;;;;;;;;7.75;7.00;;;;;23.47;52.62;100708.44;4882308;29;45558;-72
2021/09/14 00:38:18;;;;;;;;;6.75;6.75;;;;;23.56;52.21;100731.31;4883529;29;45294;-72
2021/09/14 00:40:44;;;;;;;;;7.00;7.00;;;;;23.55;52.28;100727.72;4876854;29;45341;-72
2021/09/14 00:43:09;;;;;;;;;8.00;8.00;;;;;23.49;52.24;100723.69;4876451;29;45639;-72
2021/09/14 00:45:34;;;;;;;;;7.50;7.50;;;;;23.51;52.54;100731.72;4883697;29;45236;-72
2021/09/14 00:48:00;;;;;;;;;7.50;7.00;;;;;23.48;52.65;100729.25;4883542;29;45256;-72
2021/09/14 00:50:26;;;;;;;;;7.00;7.00;;;;;23.45;52.44;100727.66;4883459;29;45225;-72
2021/09/14 00:52:52;;;;;;;;;6.50;6.50;;;;;23.42;52.38;100724.34;4883755;29;45457;-72
2021/09/14 00:55:17;;;;;;;;;7.25;7.25;;;;;23.44;52.75;100731.38;4887145;29;45264;-72
2021/09/14 00:57:43;;;;;;;;;6.00;6.00;;;;;23.36;52.97;100709.41;4885499;29;47131;-72
2021/09/14 01:00:09;;;;;;;;;7.00;7.00;;;;;23.37;52.34;100711.13;4886763;29;45243;-72
2021/09/14 05:48:15;;;;;;;;;14.50;13.50;;;;;21.57;62.90;100639.06;5677279;22;14544230;-71
2021/09/14 05:50:53;;;;;;;;;12.75;12.75;;;;;21.40;63.09;100641.22;6248628;22;45430;-71
2021/09/14 05:53:18;;;;;;;;;14.50;13.50;;;;;21.43;63.24;100661.81;6277400;22;45378;-71
2021/09/14 06:03:58;;;;;;;;;;;;;;;;;;;;;
2021/09/14 06:10:55;;;;;;;;;;;;;;;;;;;;;
2021/09/14 06:17:44;;;;;;;;;;;;;;;;;;;;;
2021/09/14 06:21:32;;;;;;;;;;;;;;;;;;;;;
2021/09/14 06:24:23;;;;;;;;;9.75;8.75;;;;;21.23;64.11;100710.44;6250332;22;46294;-72
2021/09/14 06:41:07;;;;;;;;;12.25;12.25;;;;;21.31;64.58;100720.69;5977817;23;45515;-71
2021/09/14 07:59:23;;;;;;;;;;;;;;;;;;;;;
2021/09/14 08:06:10;;;;;;;;;;;;;;;;;;;;;
2021/09/14 11:35:58;;;;;;;;;11.50;11.50;;;;;22.94;70.46;100703.91;6263510;22;45440;-72
2021/09/14 11:38:41;;;;;;;;;;;;;;;;;;;;;
2021/09/14 11:41:12;;;;;;;;;12.00;10.00;;;;;22.98;69.19;100699.91;6339550;22;72936;-72
2021/09/14 11:43:53;;;;;;;;;11.25;10.00;;;;;23.37;68.72;100754.72;6340666;22;45483;-72
2021/09/14 11:46:27;;;;;;;;;11.50;11.00;;;;;23.43;68.83;100756.03;6340990;22;45437;-72
2021/09/14 11:49:07;;;;;;;;;10.75;10.75;;;;;23.32;68.96;100724.25;6341207;22;45301;-72
2021/09/14 11:52:21;;;;;;;;;10.00;9.00;;;;;23.43;67.99;100739.69;6338762;22;45465;-72
2021/09/14 11:55:06;;;;;;;;;10.00;9.25;;;;;23.49;67.98;100741.88;6332271;22;46433;-72
2021/09/14 11:58:27;;;;;;;;;11.00;10.00;;;;;23.39;67.78;100720.03;6340244;22;45386;-74
2021/09/14 12:01:33;;;;;;;;;;;;;;;;;;;;;
2021/09/14 12:07:16;;;;;;;;;;;;;;;;;;;;;
2021/09/14 12:10:12;;;;;;;;;;;;;;;;;;;;;
2021/09/14 12:12:40;;;;;;;;;9.25;8.25;;;;;23.58;66.29;100705.66;6333912;22;70166;-71
2021/09/14 12:15:10;;;;;;;;;11.25;10.00;;;;;23.79;65.83;100738.34;6335433;22;45412;-71
2021/09/14 12:17:42;;;;;;;;;9.00;9.00;;;;;23.74;66.42;100726.09;6333871;22;46435;-71
2021/09/14 12:20:11;;;;;;;;;8.00;7.00;;;;;23.83;66.58;100738.94;6336012;22;45580;-71
2021/09/14 12:22:41;;;;;;;;;9.25;8.50;;;;;23.65;66.59;100698.66;6336371;22;45479;-71
2021/09/14 12:25:12;;;;;;;;;10.25;7.50;;;;;23.89;65.49;100732.09;6335237;22;45267;-71
2021/09/14 12:27:37;;;;;;;;;9.25;9.25;;;;;23.95;65.77;100735.13;6335942;22;46395;-71
2021/09/14 12:32:49;;;;;;;;;9.75;9.00;;;;;24.01;66.19;100723.69;6330759;22;45471;-71
2021/09/14 12:35:29;;;;;;;;;;;;;;;;;;;;;
2021/09/14 12:40:48;;;;;;;;;9.75;8.00;;;;;24.17;65.16;100733.19;6332253;22;45868;-71
2021/09/14 12:43:18;;;;;;;;;10.75;10.75;;;;;24.01;64.74;100695.56;6336076;22;45348;-71
2021/09/14 12:46:40;;;;;;;;;;;;;;;;;;;;;
2021/09/14 13:20:16;;;;;;;;;6.75;5.25;;;;;24.42;61.97;100686.34;6329828;22;46443;-76
2021/09/14 13:23:25;;;;;;;;;8.75;8.50;;;;;24.40;61.44;100685.59;6340361;22;45398;-74
2021/09/14 13:25:51;;;;;;;;;6.00;6.00;;;;;24.56;61.58;100689.69;6291290;22;47308;-78
2021/09/14 13:28:17;;;;;;;;;9.00;9.00;;;;;24.68;61.53;100712.25;6340024;22;45576;-78
2021/09/14 14:14:35;;;;;;;;;;;;;;;;;;;;;
2021/09/14 14:33:41;;;;;;;;;7.50;6.50;;;;;24.89;58.99;100639.28;5864274;24;45463;-74
2021/09/14 14:40:04;;;;;;;;;;;;;;;;;;;;;
2021/09/14 14:46:07;;;;;;;;;;;;;;;;;;;;;
2021/09/14 14:49:02;;;;;;;;;;;;;;;;;;;;;
2021/09/14 14:52:18;;;;;;;;;;;;;;;;;;;;;
2021/09/14 15:37:18;;;;;;;;;;;;;;;;;;;;;
2021/09/14 15:43:27;;;;;;;;;;;;;;;;;;;;;
2021/09/14 15:53:47;;;;;;;;;11.50;11.00;;;;;25.26;60.46;100627.59;6150120;22;45542;-75
2021/09/14 16:07:01;;;;;;;;;;;;;;;;;;;;;
2021/09/14 16:17:22;;;;;;;;;8.25;8.25;;;;;25.13;60.38;100605.19;6370306;22;45305;-76
2021/09/14 16:20:09;;;;;;;;;8.00;8.00;;;;;25.03;60.28;100594.28;6309984;22;45421;-78
2021/09/14 16:22:35;;;;;;;;;9.25;8.50;;;;;25.05;60.33;100596.84;6333241;22;45375;-76
2021/09/14 16:25:04;;;;;;;;;8.00;8.00;;;;;25.27;60.82;100631.19;6339410;22;45366;-75
2021/09/14 16:27:35;;;;;;;;;8.00;7.50;;;;;25.00;60.57;100591.81;6334158;22;45332;-75
2021/09/14 16:30:01;;;;;;;;;14.00;10.75;;;;;25.03;60.90;100607.06;6338416;22;45310;-74
2021/09/14 16:33:05;;;;;;;;;;;;;;;;;;;;;
2021/09/14 16:36:13;;;;;;;;;;;;;;;;;;;;;
2021/09/14 16:42:10;;;;;;;;;8.50;7.50;;;;;25.09;60.86;100595.53;6241486;22;45466;-77
2021/09/14 16:44:35;;;;;;;;;7.75;6.75;;;;;25.04;60.92;100592.38;6340006;22;45401;-75
2021/09/14 16:47:11;;;;;;;;;11.50;9.25;;;;;25.31;61.23;100627.16;6311923;22;45378;-77
2021/09/14 16:49:49;;;;;;;;;7.75;7.75;;;;;25.06;61.13;100585.78;6311926;22;45377;-74
2021/09/14 16:52:25;;;;;;;;;10.25;10.25;;;;;25.20;61.69;100605.44;6340637;22;45189;-75
2021/09/14 16:55:43;;;;;;;;;7.25;5.50;;;;;24.96;61.86;100577.63;6339483;22;46574;-74
2021/09/14 16:58:11;;;;;;;;;10.50;9.75;;;;;25.00;62.27;100586.38;6264645;22;45539;-78
2021/09/14 17:00:38;;;;;;;;;16.00;11.75;;;;;25.18;61.99;100621.97;6340975;22;45504;-76
2021/09/14 17:06:32;;;;;;;;;12.00;12.00;;;;;24.86;64.07;100595.00;6258427;22;46634;-75
2021/09/14 17:09:21;;;;;;;;;13.25;12.50;;;;;24.95;63.68;100613.25;6311374;22;45530;-73
2021/09/14 17:11:50;;;;;;;;;14.75;11.50;;;;;24.84;63.83;100597.03;6309588;22;45405;-73
2021/09/14 17:14:16;;;;;;;;;11.25;10.25;;;;;24.87;64.07;100610.38;6340306;22;45314;-74
2021/09/14 17:17:10;;;;;;;;;10.00;9.25;;;;;25.08;64.58;100651.19;6311592;22;46679;-75
2021/09/14 17:20:38;;;;;;;;;12.50;11.25;;;;;24.91;65.12;100618.16;6242370;22;45398;-72
2021/09/14 17:23:04;;;;;;;;;13.00;11.50;;;;;25.04;64.88;100650.63;6262389;22;45247;-75
2021/09/14 17:25:29;;;;;;;;;17.50;14.00;;;;;24.89;64.94;100630.22;6275742;22;45318;-72
2021/09/14 17:30:46;;;;;;;;;12.75;12.75;;;;;24.81;65.86;100635.53;6228029;22;45490;-77
2021/09/14 17:33:14;;;;;;;;;12.75;11.25;;;;;24.70;65.99;100629.22;6277896;22;45186;-71
2021/09/14 17:36:00;;;;;;;;;8.25;8.25;;;;;24.54;65.63;100607.94;6277980;22;45338;-78
2021/09/14 17:38:25;;;;;;;;;13.00;11.00;;;;;24.58;66.21;100603.09;6277254;22;45237;-78
2021/09/14 17:40:51;;;;;;;;;13.00;12.00;;;;;24.73;65.56;100628.94;6278003;22;45245;-71
2021/09/14 17:43:20;;;;;;;;;13.50;13.00;;;;;24.57;65.62;100598.63;6278153;22;45349;-75
2021/09/14 17:45:48;;;;;;;;;12.50;10.75;;;;;24.62;65.40;100593.59;6301861;22;45247;-81
2021/09/14 17:48:19;;;;;;;;;13.75;11.25;;;;;24.70;65.38;100609.25;6277390;22;45302;-75
2021/09/14 17:50:45;;;;;;;;;13.00;11.75;;;;;24.53;66.07;100583.53;6276507;22;45403;-73
2021/09/14 17:53:11;;;;;;;;;11.75;11.75;;;;;24.86;66.10;100638.69;6277268;22;45592;-72
2021/09/14 17:55:38;;;;;;;;;13.50;13.00;;;;;24.70;65.74;100615.56;6299690;22;45271;-74
2021/09/14 17:58:05;;;;;;;;;19.00;14.75;;;;;24.85;66.50;100640.56;6276598;22;45316;-72
2021/09/14 18:00:31;;;;;;;;;16.50;15.50;;;;;24.66;65.91;100607.81;6277611;22;45220;-71
2021/09/14 18:02:56;;;;;;;;;14.50;11.75;;;;;24.75;65.88;100621.47;6301367;22;45390;-72
2021/09/14 18:05:22;;;;;;;;;13.00;13.00;;;;;24.81;66.34;100638.25;6275502;22;45404;-72
2021/09/14 18:07:47;;;;;;;;;12.75;12.75;;;;;24.65;67.04;100622.47;6277703;22;45747;-73
2021/09/14 18:10:13;;;;;;;;;11.00;11.00;;;;;24.66;66.50;100633.25;6277880;22;45328;-73
2021/09/14 18:12:42;;;;;;;;;15.25;13.25;;;;;24.59;66.17;100623.91;6278162;22;45377;-73
2021/09/14 18:15:12;;;;;;;;;13.00;12.50;;;;;24.72;67.07;100653.63;6277127;22;45378;-73
2021/09/14 18:17:39;;;;;;;;;13.25;13.25;;;;;24.52;66.75;100626.31;6282196;22;45873;-72
2021/09/14 18:20:06;;;;;;;;;15.75;14.00;;;;;24.67;66.98;100655.94;6339685;22;45323;-72
2021/09/14 18:22:32;;;;;;;;;16.50;14.25;;;;;24.65;66.76;100656.09;6341566;22;45184;-68
2021/09/14 18:24:57;;;;;;;;;13.25;13.00;;;;;24.67;67.33;100667.72;6337570;22;45302;-80
2021/09/14 18:27:23;;;;;;;;;13.75;13.75;;;;;24.57;67.23;100654.09;6337102;22;45756;-70
2021/09/14 18:29:48;;;;;;;;;16.50;13.75;;;;;24.66;66.64;100673.31;6336286;22;45381;-70
2021/09/14 18:32:15;;;;;;;;;18.25;18.00;;;;;24.66;66.80;100671.47;6336992;22;45346;-70
2021/09/14 18:34:43;;;;;;;;;14.25;14.25;;;;;24.48;67.37;100645.84;6336892;22;45673;-70
2021/09/14 18:37:18;;;;;;;;;14.00;14.00;;;;;24.35;67.26;100635.22;6336138;22;45924;-70
2021/09/14 18:39:44;;;;;;;;;13.00;13.00;;;;;24.57;67.16;100675.91;6336250;22;45465;-70
2021/09/14 18:42:30;;;;;;;;;13.00;13.00;;;;;24.55;66.80;100675.19;6308139;22;46151;-70
2021/09/14 18:45:00;;;;;;;;;16.75;14.25;;;;;24.42;67.15;100652.72;6337341;22;45673;-70
2021/09/14 18:47:26;;;;;;;;;15.50;12.50;;;;;24.42;67.14;100664.53;6336312;22;45855;-72
2021/09/14 18:49:51;;;;;;;;;14.00;13.00;;;;;24.37;67.26;100655.00;6336013;22;45455;-73
2021/09/14 18:52:16;;;;;;;;;24.50;23.75;;;;;24.35;67.44;100651.56;6337114;22;45679;-73
2021/09/14 18:54:42;;;;;;;;;20.50;20.00;;;;;24.41;67.80;100670.13;6336598;22;45480;-73
2021/09/14 18:57:08;;;;;;;;;15.75;15.50;;;;;24.39;67.82;100667.53;6336914;22;46501;-73
2021/09/14 18:59:33;;;;;;;;;16.25;14.00;;;;;24.27;67.38;100644.09;6336619;22;45813;-74
2021/09/14 19:02:01;;;;;;;;;14.75;14.50;;;;;24.42;67.58;100675.44;6337240;22;45721;-70
2021/09/14 19:04:27;;;;;;;;;8.75;8.75;;;;;24.32;67.74;100660.03;6336989;22;45790;-73
2021/09/14 19:06:53;;;;;;;;;15.25;14.25;;;;;24.49;67.52;100683.03;6336403;22;45347;-72
2021/09/14 19:09:19;;;;;;;;;17.50;15.25;;;;;24.37;67.72;100674.13;6336342;22;45892;-73
2021/09/14 19:11:44;;;;;;;;;15.75;15.25;;;;;24.47;67.60;100693.22;6337074;22;45606;-73
2021/09/14 19:14:10;;;;;;;;;14.50;13.75;;;;;24.45;68.10;100687.06;6337313;22;45555;-73
2021/09/14 19:16:58;;;;;;;;;14.50;13.00;;;;;24.17;67.82;100644.09;6336853;22;45821;-70
2021/09/14 19:19:23;;;;;;;;;15.00;12.25;;;;;24.20;67.52;100660.16;6335714;22;45720;-72
2021/09/14 19:21:49;;;;;;;;;13.00;13.00;;;;;24.26;67.90;100675.13;6336904;22;45487;-72
2021/09/14 19:24:14;;;;;;;;;13.00;12.25;;;;;24.33;67.81;100678.13;6308717;22;45410;-70
2021/09/14 19:26:43;;;;;;;;;15.00;13.75;;;;;24.22;67.62;100668.19;6336727;22;46144;-70
2021/09/14 19:29:09;;;;;;;;;14.00;14.00;;;;;24.21;67.49;100663.75;6307699;22;46180;-71
2021/09/14 19:31:35;;;;;;;;;11.75;11.75;;;;;24.31;67.52;100689.19;6337177;22;45463;-71
2021/09/14 19:34:01;;;;;;;;;13.75;13.25;;;;;24.34;68.30;100694.38;6336488;22;45400;-71
2021/09/14 19:36:26;;;;;;;;;14.50;13.75;;;;;24.11;67.96;100657.44;6336497;22;45849;-70
2021/09/14 19:38:51;;;;;;;;;13.25;13.25;;;;;24.28;68.10;100683.16;6307536;22;45743;-70
2021/09/14 19:41:17;;;;;;;;;14.00;14.00;;;;;24.18;68.06;100664.03;6334062;22;45754;-69
2021/09/14 19:43:42;;;;;;;;;14.50;14.00;;;;;24.03;68.11;100642.59;6336637;22;45470;-70
2021/09/14 19:46:08;;;;;;;;;14.50;14.50;;;;;24.05;68.36;100642.47;6336510;22;45470;-70
2021/09/14 19:48:33;;;;;;;;;14.50;13.25;;;;;24.19;68.39;100663.00;6336260;22;45412;-70
2021/09/14 19:50:59;;;;;;;;;15.50;15.00;;;;;24.06;68.30;100636.03;6336744;22;45387;-72
2021/09/14 19:53:27;;;;;;;;;15.25;15.25;;;;;24.12;68.03;100648.22;6308402;22;45521;-71
2021/09/14 19:55:53;;;;;;;;;13.25;12.50;;;;;24.16;68.06;100657.88;6308130;22;47425;-72
2021/09/14 19:58:19;;;;;;;;;12.75;12.75;;;;;24.13;68.14;100652.69;6307807;22;45426;-70
2021/09/14 20:00:46;;;;;;;;;14.25;13.00;;;;;23.96;68.29;100627.81;6336778;22;45368;-72
2021/09/14 20:03:11;;;;;;;;;13.00;13.00;;;;;24.09;68.44;100646.66;6308154;22;45784;-69
2021/09/14 20:05:37;;;;;;;;;12.25;12.25;;;;;24.12;68.23;100654.53;6335497;22;45817;-70
2021/09/14 20:08:02;;;;;;;;;13.50;12.25;;;;;23.88;68.36;100608.56;6335795;22;45430;-69
2021/09/14 20:10:28;;;;;;;;;12.75;12.00;;;;;24.12;68.15;100649.06;6336203;22;45720;-69
2021/09/14 20:12:53;;;;;;;;;14.00;13.50;;;;;23.80;68.20;100590.13;6336470;22;45633;-69
2021/09/14 20:15:21;;;;;;;;;9.75;9.25;;;;;24.00;68.09;100625.66;6336386;22;45505;-71
2021/09/14 20:17:47;;;;;;;;;12.25;12.00;;;;;23.98;68.40;100631.25;6307566;22;45360;-71
2021/09/14 20:20:13;;;;;;;;;12.00;10.75;;;;;23.87;68.64;100617.72;6336041;22;45640;-71
2021/09/14 20:23:01;;;;;;;;;15.00;12.25;;;;;23.98;67.88;100647.63;6307745;22;45737;-71
2021/09/14 20:25:27;;;;;;;;;13.50;12.25;;;;;23.96;68.14;100641.44;6335916;22;46459;-70
2021/09/14 20:27:52;;;;;;;;;12.00;12.00;;;;;23.89;68.25;100629.38;6336195;22;45461;-69
2021/09/14 20:30:19;;;;;;;;;12.50;12.50;;;;;23.92;68.52;100634.53;6336035;22;45474;-70
2021/09/14 20:32:47;;;;;;;;;16.00;13.25;;;;;23.97;68.16;100640.47;6336359;22;45526;-70
2021/09/14 20:35:13;;;;;;;;;11.75;11.75;;;;;23.89;68.13;100621.22;6336102;22;46560;-71
2021/09/14 20:37:40;;;;;;;;;14.75;14.75;;;;;24.05;68.35;100654.22;6308250;22;45395;-71
2021/09/14 20:40:11;;;;;;;;;13.50;12.75;;;;;23.94;67.94;100629.81;6335940;22;45824;-73
2021/09/14 20:42:37;;;;;;;;;13.00;11.50;;;;;24.16;68.12;100666.91;6335698;22;45424;-71
2021/09/14 20:45:05;;;;;;;;;10.25;9.50;;;;;23.86;68.05;100622.34;6335946;22;46104;-71
2021/09/14 20:47:30;;;;;;;;;14.75;13.75;;;;;23.83;68.72;100624.47;6335966;22;45832;-71
2021/09/14 20:50:31;;;;;;;;;;;;;;;;;;;;;
2021/09/14 20:52:47;;;;;;;;;13.25;13.25;;;;;24.05;68.65;100647.91;6327249;22;45705;-74
2021/09/14 20:55:15;;;;;;;;;14.25;14.25;;;;;23.85;68.69;100615.16;6307648;22;47206;-72
2021/09/14 20:57:42;;;;;;;;;16.50;14.50;;;;;23.86;68.78;100619.59;6335864;22;45407;-73
2021/09/14 21:00:11;;;;;;;;;14.00;13.50;;;;;23.77;69.00;100611.38;6336075;22;45824;-71
2021/09/14 21:02:37;;;;;;;;;14.50;13.25;;;;;23.97;68.63;100653.22;6307820;22;45723;-73
2021/09/14 21:08:34;;;;;;;;;20.50;19.25;;;;;23.92;69.17;100650.03;6255714;22;45642;-71
2021/09/14 21:11:00;;;;;;;;;19.75;16.50;;;;;23.92;68.88;100656.34;6336212;22;45410;-69
2021/09/14 21:13:26;;;;;;;;;11.50;11.50;;;;;23.79;69.02;100642.94;6334177;22;45624;-72
2021/09/14 21:16:18;;;;;;;;;15.75;14.25;;;;;23.83;69.05;100654.47;6307756;22;47404;-71
2021/09/14 21:18:48;;;;;;;;;13.25;13.25;;;;;23.96;69.00;100681.50;6306531;22;45730;-70
2021/09/14 21:21:14;;;;;;;;;15.00;12.75;;;;;23.90;69.03;100666.53;6336100;22;45781;-71
2021/09/14 21:23:39;;;;;;;;;13.00;12.00;;;;;23.98;68.84;100683.06;6337477;22;45690;-68
2021/09/14 21:26:05;;;;;;;;;19.50;16.25;;;;;23.93;69.07;100682.63;6340407;22;45590;-68
2021/09/14 21:28:30;;;;;;;;;13.50;13.50;;;;;23.95;69.30;100690.66;6312039;22;45540;-68
2021/09/14 21:30:57;;;;;;;;;13.50;13.50;;;;;23.95;68.67;100691.50;6312835;22;45295;-68
2021/09/14 21:33:23;;;;;;;;;16.50;16.50;;;;;23.92;69.15;100686.31;6340615;22;45346;-69
2021/09/14 21:35:48;;;;;;;;;14.25;12.75;;;;;23.88;69.33;100690.34;6341305;22;45378;-69
2021/09/14 21:38:14;;;;;;;;;18.00;16.00;;;;;23.91;68.96;100706.44;6312439;22;45253;-69
2021/09/14 21:40:39;;;;;;;;;13.50;13.50;;;;;23.82;69.17;100699.94;6341322;22;45160;-69
2021/09/14 21:43:05;;;;;;;;;14.00;13.50;;;;;23.83;69.18;100709.81;6341136;22;45479;-69
2021/09/14 21:45:30;;;;;;;;;15.50;15.00;;;;;23.84;69.60;100708.00;6312678;22;47281;-69
2021/09/14 21:47:55;;;;;;;;;13.50;13.00;;;;;23.90;69.50;100717.47;6340913;22;45132;-69
2021/09/14 21:50:21;;;;;;;;;16.75;16.50;;;;;23.75;69.13;100693.25;6341029;22;45170;-69
2021/09/14 21:52:46;;;;;;;;;15.50;13.75;;;;;23.82;69.10;100699.94;6341127;22;45101;-69
2021/09/14 21:55:11;;;;;;;;;14.00;13.50;;;;;23.95;69.49;100720.63;6340726;22;45286;-69
2021/09/14 21:57:37;;;;;;;;;17.50;14.50;;;;;23.97;69.53;100716.78;6341436;22;45163;-69
2021/09/14 22:00:07;;;;;;;;;17.50;14.50;;;;;23.93;68.95;100707.16;6341698;22;45203;-69
2021/09/14 22:02:32;;;;;;;;;15.25;14.00;;;;;23.89;68.95;100708.44;6342137;22;45352;-69
2021/09/14 22:04:58;;;;;;;;;17.50;13.25;;;;;23.95;69.33;100721.50;6313600;22;47195;-69
2021/09/14 22:07:23;;;;;;;;;21.50;19.00;;;;;23.83;69.87;100706.25;6313958;22;45323;-69
2021/09/14 22:09:48;;;;;;;;;17.50;14.50;;;;;23.94;69.46;100719.78;6342043;22;45810;-69
2021/09/14 22:12:14;;;;;;;;;17.25;14.75;;;;;23.91;69.21;100713.75;6341974;22;45239;-69
2021/09/14 22:14:39;;;;;;;;;20.25;15.50;;;;;23.90;69.36;100715.59;6313682;22;46928;-69
2021/09/14 22:17:04;;;;;;;;;18.75;15.50;;;;;23.65;69.41;100676.00;6341833;22;45349;-69
2021/09/14 22:19:30;;;;;;;;;16.50;16.00;;;;;23.92;69.59;100719.03;6341362;22;45405;-69
2021/09/14 22:21:55;;;;;;;;;16.50;14.00;;;;;23.83;69.61;100701.66;6341935;22;45310;-69
2021/09/14 22:24:20;;;;;;;;;18.25;18.25;;;;;23.87;69.76;100713.13;6341992;22;45123;-69
2021/09/14 22:26:46;;;;;;;;;15.25;15.00;;;;;23.85;69.36;100705.09;6341815;22;45258;-69
2021/09/14 22:29:11;;;;;;;;;18.00;15.50;;;;;23.81;69.54;100697.31;6341863;22;45374;-69
2021/09/14 22:31:36;;;;;;;;;13.25;13.25;;;;;23.92;69.49;100708.13;6342060;22;45068;-69
2021/09/14 22:34:02;;;;;;;;;17.00;16.00;;;;;23.91;69.78;100713.75;6341792;22;45521;-69
2021/09/14 22:36:27;;;;;;;;;15.00;15.00;;;;;23.89;69.80;100708.44;6342112;22;45358;-69
2021/09/14 22:38:53;;;;;;;;;17.25;16.00;;;;;23.90;69.02;100709.28;6342315;22;45246;-69
2021/09/14 22:41:18;;;;;;;;;13.00;13.00;;;;;23.86;69.73;100704.09;6342026;22;45242;-69
2021/09/14 22:43:44;;;;;;;;;13.75;13.75;;;;;23.83;69.24;100698.91;6342028;22;45098;-69
2021/09/14 22:46:09;;;;;;;;;13.00;12.75;;;;;23.86;69.25;100703.25;6342169;22;45314;-69
2021/09/14 22:48:36;;;;;;;;;15.75;15.75;;;;;23.85;69.69;100685.16;6313293;22;45618;-69
2021/09/14 22:51:02;;;;;;;;;12.25;12.00;;;;;23.89;69.77;100694.81;6341569;22;45329;-69
2021/09/14 22:53:27;;;;;;;;;14.75;13.00;;;;;23.87;69.72;100696.78;6339786;22;47195;-69
2021/09/14 22:55:52;;;;;;;;;15.00;14.75;;;;;23.80;69.58;100681.94;6287114;22;45287;-69
2021/09/14 22:58:18;;;;;;;;;13.75;13.25;;;;;23.80;69.49;100696.44;6313358;22;45319;-69
2021/09/14 23:00:43;;;;;;;;;11.25;11.25;;;;;23.85;69.38;100694.19;6313645;22;45365;-69
2021/09/14 23:03:09;;;;;;;;;14.50;13.00;;;;;23.65;69.16;100659.66;6313308;22;45822;-69
2021/09/14 23:05:34;;;;;;;;;10.25;10.25;;;;;23.80;68.99;100677.34;6341249;22;45242;-69
2021/09/14 23:08:01;;;;;;;;;9.00;9.00;;;;;23.75;69.34;100665.16;6313384;22;45350;-69
2021/09/14 23:10:27;;;;;;;;;9.00;8.00;;;;;23.79;68.69;100672.03;6341639;22;45160;-69
2021/09/14 23:12:52;;;;;;;;;8.25;7.75;;;;;23.68;69.05;100662.97;6342012;22;45266;-69
2021/09/14 23:15:17;;;;;;;;;7.00;7.00;;;;;23.59;68.47;100644.72;6341963;22;45173;-69
2021/09/14 23:17:43;;;;;;;;;8.00;8.00;;;;;23.76;68.57;100677.78;6341880;22;45359;-69
2021/09/14 23:20:10;;;;;;;;;5.75;5.75;;;;;23.72;68.11;100662.69;6341495;22;45354;-69
2021/09/14 23:22:37;;;;;;;;;7.25;7.25;;;;;23.53;68.15;100636.25;6341801;22;46442;-69
2021/09/14 23:25:03;;;;;;;;;6.50;6.00;;;;;23.51;68.13;100636.38;6341443;22;45319;-69
2021/09/14 23:27:28;;;;;;;;;6.75;6.75;;;;;23.63;68.38;100657.06;6341703;22;45329;-69
2021/09/14 23:29:54;;;;;;;;;7.00;7.00;;;;;23.60;68.19;100640.97;6341429;22;45357;-69
2021/09/14 23:32:19;;;;;;;;;8.00;7.00;;;;;23.66;68.05;100664.13;6341647;22;45285;-69
2021/09/14 23:34:44;;;;;;;;;5.25;5.00;;;;;23.60;67.84;100653.75;6340877;22;45178;-69
2021/09/14 23:37:10;;;;;;;;;8.50;7.00;;;;;23.56;67.94;100649.59;6341994;22;45242;-69
2021/09/14 23:39:35;;;;;;;;;6.75;6.75;;;;;23.56;67.94;100645.00;6341555;22;45281;-69
2021/09/14 23:42:01;;;;;;;;;7.25;5.25;;;;;23.49;68.12;100633.78;6341621;22;45177;-69
2021/09/14 23:44:27;;;;;;;;;4.75;4.75;;;;;23.45;67.88;100629.59;6341012;22;45158;-69
2021/09/14 23:46:53;;;;;;;;;4.00;4.00;;;;;23.51;67.96;100633.66;6341712;22;45103;-69
2021/09/14 23:49:18;;;;;;;;;5.00;5.00;;;;;23.38;68.05;100620.25;6339623;22;45382;-69
2021/09/14 23:51:44;;;;;;;;;4.00;4.00;;;;;23.35;67.51;100609.63;6341929;22;45507;-69
2021/09/14 23:54:09;;;;;;;;;6.00;5.00;;;;;23.49;67.66;100628.34;6341205;22;45150;-69
2021/09/14 23:56:34;;;;;;;;;5.00;5.00;;;;;23.35;67.56;100611.47;6313776;22;45101;-69
2021/09/14 23:59:00;;;;;;;;;5.50;5.25;;;;;23.30;67.43;100603.72;6341622;22;45211;-69
